Карточка аэропорта UMKK

Внимание!
Информация на этой странице в стадии наполнения.
Если вы не увидели какой-то информации, или заметили неточность - пожалуйста сообщите нам!
Спасибо!
Команда RU-STAFF
Название аэропортаХраброво
Название аэропорта (англ.)Khrabrovo
Превышение43 ft. (13.1 m.)
Координаты54°53.4', 20°35.55'
Высота перехода4000ft
Эшелон переходаFL50 (QNH>=1013hPa); FL60 (QNH<1013hPa); FL50 (QNH<977hPa);
Коды ответчика6620-6637
Зона ОрВДКалининград РПИ (UMKK)
Данные METARUMKK 121930Z 30003MPS 240V330 9999 -SHRA BKN036CB 12/09 Q1022 R24/95D NOSIG RMK QFE765/1020
Проноз погоды (TAF)UMKK 121656Z 1218/1318 21003G10MPS 6000 BKN016 BECMG 1221/1223 27008G15MPS BECMG 1300/1302 BKN006 TEMPO 1302/1309 0300 FG BKN003 TEMPO 1309/1312 1000 BR BKN004 BECMG 1312/1314 26005G10MPS BKN016 TEMPO 1315/1318 BKN005
NOTAMshow/hide NOTAM
AWOS   TABLE

Информация о ВПП

ВПП Длина ВПП (м.) Покрытие Курс ВПП Частота ILS
243350Асфальтобетон240109.5
063350Асфальтобетон60110.3

Диспетчерские позиции

Позывной Наименование органа УВД Частота
UMKK_TWRКалининград-Вышка127.2
UMKK_APPКалининград-Подход126.0



Спутниковое изображение